sensor_id;sensor_type;location;lat;lon;timestamp;P1;durP1;ratioP1;P2;durP2;ratioP2
83465;SDS011;73393;51.946;20.140;2024-03-23T00:54:22;30.33;;;18.37;;
83465;SDS011;73393;51.946;20.140;2024-03-23T00:56:47;29.00;;;17.90;;
83465;SDS011;73393;51.946;20.140;2024-03-23T00:59:13;31.67;;;19.10;;
83465;SDS011;73393;51.946;20.140;2024-03-23T01:01:39;32.80;;;18.77;;
83465;SDS011;73393;51.946;20.140;2024-03-23T01:04:04;29.30;;;16.90;;
83465;SDS011;73393;51.946;20.140;2024-03-23T01:06:30;33.33;;;18.90;;
83465;SDS011;73393;51.946;20.140;2024-03-23T01:08:56;28.97;;;16.37;;
83465;SDS011;73393;51.946;20.140;2024-03-23T01:11:21;25.90;;;17.27;;
83465;SDS011;73393;51.946;20.140;2024-03-23T01:13:47;30.50;;;18.50;;
83465;SDS011;73393;51.946;20.140;2024-03-23T01:16:12;30.03;;;17.97;;
83465;SDS011;73393;51.946;20.140;2024-03-23T01:18:38;32.03;;;19.27;;
83465;SDS011;73393;51.946;20.140;2024-03-23T01:21:03;27.97;;;17.07;;
83465;SDS011;73393;51.946;20.140;2024-03-23T01:23:29;32.73;;;18.93;;
83465;SDS011;73393;51.946;20.140;2024-03-23T01:25:55;30.53;;;19.73;;
83465;SDS011;73393;51.946;20.140;2024-03-23T01:28:21;32.93;;;18.37;;
83465;SDS011;73393;51.946;20.140;2024-03-23T01:30:47;38.50;;;21.07;;
83465;SDS011;73393;51.946;20.140;2024-03-23T01:33:13;37.40;;;20.13;;
83465;SDS011;73393;51.946;20.140;2024-03-23T01:35:38;35.03;;;18.87;;
83465;SDS011;73393;51.946;20.140;2024-03-23T01:38:04;29.33;;;18.70;;
83465;SDS011;73393;51.946;20.140;2024-03-23T01:40:29;33.13;;;17.47;;
83465;SDS011;73393;51.946;20.140;2024-03-23T01:42:58;36.13;;;19.63;;
83465;SDS011;73393;51.946;20.140;2024-03-23T01:45:28;33.30;;;18.73;;
83465;SDS011;73393;51.946;20.140;2024-03-23T01:47:55;32.60;;;18.23;;
83465;SDS011;73393;51.946;20.140;2024-03-23T01:50:20;36.60;;;19.20;;
83465;SDS011;73393;51.946;20.140;2024-03-23T01:52:46;30.90;;;18.10;;
83465;SDS011;73393;51.946;20.140;2024-03-23T01:55:13;37.07;;;19.17;;
83465;SDS011;73393;51.946;20.140;2024-03-23T01:57:38;30.97;;;19.00;;
83465;SDS011;73393;51.946;20.140;2024-03-23T02:00:04;30.93;;;19.27;;
83465;SDS011;73393;51.946;20.140;2024-03-23T02:02:31;30.57;;;18.93;;
83465;SDS011;73393;51.946;20.140;2024-03-23T02:04:57;33.90;;;20.80;;
83465;SDS011;73393;51.946;20.140;2024-03-23T02:07:22;34.87;;;20.80;;
83465;SDS011;73393;51.946;20.140;2024-03-23T02:09:49;41.17;;;21.07;;
83465;SDS011;73393;51.946;20.140;2024-03-23T02:12:18;38.47;;;20.80;;
83465;SDS011;73393;51.946;20.140;2024-03-23T02:14:46;36.73;;;21.33;;
83465;SDS011;73393;51.946;20.140;2024-03-23T02:17:11;36.93;;;20.60;;
83465;SDS011;73393;51.946;20.140;2024-03-23T02:19:38;36.00;;;21.07;;
83465;SDS011;73393;51.946;20.140;2024-03-23T02:22:03;35.47;;;20.87;;
83465;SDS011;73393;51.946;20.140;2024-03-23T02:24:29;33.30;;;19.63;;
83465;SDS011;73393;51.946;20.140;2024-03-23T02:26:55;34.27;;;21.17;;
83465;SDS011;73393;51.946;20.140;2024-03-23T02:29:21;40.60;;;22.87;;
83465;SDS011;73393;51.946;20.140;2024-03-23T02:31:47;39.97;;;21.07;;
83465;SDS011;73393;51.946;20.140;2024-03-23T02:34:13;38.13;;;21.70;;
83465;SDS011;73393;51.946;20.140;2024-03-23T02:36:38;40.70;;;23.27;;
83465;SDS011;73393;51.946;20.140;2024-03-23T02:39:04;34.83;;;21.50;;
83465;SDS011;73393;51.946;20.140;2024-03-23T02:41:30;36.17;;;21.10;;
83465;SDS011;73393;51.946;20.140;2024-03-23T02:43:55;39.27;;;24.30;;
83465;SDS011;73393;51.946;20.140;2024-03-23T02:46:21;34.47;;;19.63;;
83465;SDS011;73393;51.946;20.140;2024-03-23T02:48:48;37.30;;;21.57;;
83465;SDS011;73393;51.946;20.140;2024-03-23T02:51:14;40.90;;;22.63;;
83465;SDS011;73393;51.946;20.140;2024-03-23T02:53:40;34.67;;;21.97;;
83465;SDS011;73393;51.946;20.140;2024-03-23T02:56:06;39.47;;;22.77;;
83465;SDS011;73393;51.946;20.140;2024-03-23T02:58:32;38.77;;;21.83;;
83465;SDS011;73393;51.946;20.140;2024-03-23T03:00:57;37.53;;;21.87;;
83465;SDS011;73393;51.946;20.140;2024-03-23T03:03:23;37.23;;;23.33;;
83465;SDS011;73393;51.946;20.140;2024-03-23T03:05:58;34.87;;;21.83;;
83465;SDS011;73393;51.946;20.140;2024-03-23T03:08:24;38.93;;;21.97;;
83465;SDS011;73393;51.946;20.140;2024-03-23T03:10:49;37.40;;;23.17;;
83465;SDS011;73393;51.946;20.140;2024-03-23T03:13:15;38.73;;;23.30;;
83465;SDS011;73393;51.946;20.140;2024-03-23T03:15:41;42.63;;;25.17;;
83465;SDS011;73393;51.946;20.140;2024-03-23T03:18:08;42.73;;;24.67;;
83465;SDS011;73393;51.946;20.140;2024-03-23T03:20:33;44.30;;;26.87;;
83465;SDS011;73393;51.946;20.140;2024-03-23T03:22:59;41.50;;;23.53;;
83465;SDS011;73393;51.946;20.140;2024-03-23T03:25:25;40.90;;;23.67;;
83465;SDS011;73393;51.946;20.140;2024-03-23T03:27:51;41.17;;;22.93;;
83465;SDS011;73393;51.946;20.140;2024-03-23T03:30:16;40.97;;;22.97;;
83465;SDS011;73393;51.946;20.140;2024-03-23T03:32:42;39.07;;;22.60;;
83465;SDS011;73393;51.946;20.140;2024-03-23T03:35:08;44.93;;;24.37;;
83465;SDS011;73393;51.946;20.140;2024-03-23T03:37:33;39.53;;;23.37;;
83465;SDS011;73393;51.946;20.140;2024-03-23T03:39:59;39.13;;;22.40;;
83465;SDS011;73393;51.946;20.140;2024-03-23T03:42:25;44.30;;;24.07;;
83465;SDS011;73393;51.946;20.140;2024-03-23T03:44:50;37.97;;;22.73;;
83465;SDS011;73393;51.946;20.140;2024-03-23T03:47:17;40.27;;;23.00;;
83465;SDS011;73393;51.946;20.140;2024-03-23T03:49:43;35.87;;;22.17;;
83465;SDS011;73393;51.946;20.140;2024-03-23T03:52:08;35.90;;;21.90;;
83465;SDS011;73393;51.946;20.140;2024-03-23T03:54:34;36.23;;;21.40;;
83465;SDS011;73393;51.946;20.140;2024-03-23T03:56:59;37.43;;;22.83;;
83465;SDS011;73393;51.946;20.140;2024-03-23T03:59:25;33.80;;;21.73;;
83465;SDS011;73393;51.946;20.140;2024-03-23T04:01:51;36.07;;;21.87;;
83465;SDS011;73393;51.946;20.140;2024-03-23T04:04:17;41.10;;;22.87;;
83465;SDS011;73393;51.946;20.140;2024-03-23T04:06:43;36.77;;;21.23;;
83465;SDS011;73393;51.946;20.140;2024-03-23T04:09:09;31.17;;;20.40;;
83465;SDS011;73393;51.946;20.140;2024-03-23T04:11:35;37.53;;;22.50;;
83465;SDS011;73393;51.946;20.140;2024-03-23T04:14:00;30.17;;;20.47;;
83465;SDS011;73393;51.946;20.140;2024-03-23T04:16:33;36.70;;;23.00;;
83465;SDS011;73393;51.946;20.140;2024-03-23T04:18:59;32.17;;;21.70;;
83465;SDS011;73393;51.946;20.140;2024-03-23T04:21:25;33.17;;;20.40;;
83465;SDS011;73393;51.946;20.140;2024-03-23T04:23:50;33.20;;;19.07;;
83465;SDS011;73393;51.946;20.140;2024-03-23T04:26:16;33.30;;;19.87;;
83465;SDS011;73393;51.946;20.140;2024-03-23T04:28:42;30.90;;;18.63;;
83465;SDS011;73393;51.946;20.140;2024-03-23T04:31:08;33.70;;;19.77;;
83465;SDS011;73393;51.946;20.140;2024-03-23T04:33:34;33.70;;;19.80;;
83465;SDS011;73393;51.946;20.140;2024-03-23T04:35:59;31.63;;;19.50;;
83465;SDS011;73393;51.946;20.140;2024-03-23T04:38:25;30.47;;;19.50;;
83465;SDS011;73393;51.946;20.140;2024-03-23T04:40:57;32.97;;;22.17;;
83465;SDS011;73393;51.946;20.140;2024-03-23T04:43:24;29.30;;;17.90;;
83465;SDS011;73393;51.946;20.140;2024-03-23T04:45:52;34.87;;;19.43;;
83465;SDS011;73393;51.946;20.140;2024-03-23T04:48:21;30.67;;;18.60;;
83465;SDS011;73393;51.946;20.140;2024-03-23T04:50:48;29.10;;;18.43;;
83465;SDS011;73393;51.946;20.140;2024-03-23T04:53:14;29.40;;;17.80;;
83465;SDS011;73393;51.946;20.140;2024-03-23T04:55:41;30.37;;;18.47;;
83465;SDS011;73393;51.946;20.140;2024-03-23T04:58:07;30.67;;;19.30;;
83465;SDS011;73393;51.946;20.140;2024-03-23T05:00:32;27.63;;;17.77;;
83465;SDS011;73393;51.946;20.140;2024-03-23T05:02:58;28.17;;;20.03;;
83465;SDS011;73393;51.946;20.140;2024-03-23T05:05:24;30.30;;;19.10;;
83465;SDS011;73393;51.946;20.140;2024-03-23T05:07:49;30.27;;;18.63;;
83465;SDS011;73393;51.946;20.140;2024-03-23T05:10:15;29.10;;;19.03;;
83465;SDS011;73393;51.946;20.140;2024-03-23T05:12:41;31.50;;;18.03;;
83465;SDS011;73393;51.946;20.140;2024-03-23T05:15:07;31.13;;;19.07;;
83465;SDS011;73393;51.946;20.140;2024-03-23T05:17:32;28.80;;;17.67;;
83465;SDS011;73393;51.946;20.140;2024-03-23T05:19:59;28.17;;;18.10;;
83465;SDS011;73393;51.946;20.140;2024-03-23T05:22:25;27.17;;;15.90;;
83465;SDS011;73393;51.946;20.140;2024-03-23T05:24:52;29.47;;;17.13;;
83465;SDS011;73393;51.946;20.140;2024-03-23T05:27:18;30.00;;;17.90;;
83465;SDS011;73393;51.946;20.140;2024-03-23T05:29:43;28.17;;;16.73;;
83465;SDS011;73393;51.946;20.140;2024-03-23T05:32:09;28.40;;;17.70;;
83465;SDS011;73393;51.946;20.140;2024-03-23T05:34:34;29.33;;;17.57;;
83465;SDS011;73393;51.946;20.140;2024-03-23T05:37:00;25.23;;;17.30;;
83465;SDS011;73393;51.946;20.140;2024-03-23T05:39:26;31.27;;;16.80;;
83465;SDS011;73393;51.946;20.140;2024-03-23T05:41:51;31.33;;;18.87;;
83465;SDS011;73393;51.946;20.140;2024-03-23T05:44:17;28.30;;;18.20;;
83465;SDS011;73393;51.946;20.140;2024-03-23T05:46:43;31.83;;;18.67;;
83465;SDS011;73393;51.946;20.140;2024-03-23T05:49:13;33.47;;;16.73;;
83465;SDS011;73393;51.946;20.140;2024-03-23T05:51:39;31.60;;;17.47;;
83465;SDS011;73393;51.946;20.140;2024-03-23T05:54:04;32.07;;;17.97;;
83465;SDS011;73393;51.946;20.140;2024-03-23T05:56:30;26.97;;;17.27;;
83465;SDS011;73393;51.946;20.140;2024-03-23T05:58:57;28.55;;;17.23;;
83465;SDS011;73393;51.946;20.140;2024-03-23T06:01:23;28.33;;;17.27;;
83465;SDS011;73393;51.946;20.140;2024-03-23T06:03:48;26.03;;;14.80;;
83465;SDS011;73393;51.946;20.140;2024-03-23T06:06:14;26.23;;;16.53;;
83465;SDS011;73393;51.946;20.140;2024-03-23T06:08:40;28.00;;;16.45;;
83465;SDS011;73393;51.946;20.140;2024-03-23T06:11:05;30.53;;;17.97;;
83465;SDS011;73393;51.946;20.140;2024-03-23T06:13:32;30.07;;;17.73;;
83465;SDS011;73393;51.946;20.140;2024-03-23T06:15:58;29.17;;;15.90;;
83465;SDS011;73393;51.946;20.140;2024-03-23T06:18:24;23.50;;;15.48;;
83465;SDS011;73393;51.946;20.140;2024-03-23T06:20:50;22.63;;;14.10;;
83465;SDS011;73393;51.946;20.140;2024-03-23T06:23:16;25.63;;;14.87;;
83465;SDS011;73393;51.946;20.140;2024-03-23T06:25:45;25.63;;;14.90;;
83465;SDS011;73393;51.946;20.140;2024-03-23T06:28:10;23.80;;;15.70;;
83465;SDS011;73393;51.946;20.140;2024-03-23T06:30:36;24.98;;;15.45;;
83465;SDS011;73393;51.946;20.140;2024-03-23T06:33:01;22.57;;;13.37;;
83465;SDS011;73393;51.946;20.140;2024-03-23T06:35:27;22.48;;;14.48;;
83465;SDS011;73393;51.946;20.140;2024-03-23T06:37:53;21.23;;;13.15;;
83465;SDS011;73393;51.946;20.140;2024-03-23T06:40:18;23.05;;;12.10;;
83465;SDS011;73393;51.946;20.140;2024-03-23T06:42:44;22.83;;;14.23;;
83465;SDS011;73393;51.946;20.140;2024-03-23T06:45:10;22.23;;;13.90;;
83465;SDS011;73393;51.946;20.140;2024-03-23T06:47:35;22.57;;;13.70;;
83465;SDS011;73393;51.946;20.140;2024-03-23T06:50:02;20.97;;;12.30;;
83465;SDS011;73393;51.946;20.140;2024-03-23T06:52:28;19.55;;;12.60;;
83465;SDS011;73393;51.946;20.140;2024-03-23T06:54:54;24.03;;;14.87;;
83465;SDS011;73393;51.946;20.140;2024-03-23T06:57:20;21.33;;;12.95;;
83465;SDS011;73393;51.946;20.140;2024-03-23T06:59:45;19.13;;;12.93;;
83465;SDS011;73393;51.946;20.140;2024-03-23T07:02:11;22.07;;;13.60;;
83465;SDS011;73393;51.946;20.140;2024-03-23T07:04:37;24.38;;;13.80;;
83465;SDS011;73393;51.946;20.140;2024-03-23T07:07:04;24.05;;;14.13;;
83465;SDS011;73393;51.946;20.140;2024-03-23T07:09:30;22.10;;;13.23;;
83465;SDS011;73393;51.946;20.140;2024-03-23T07:11:56;20.17;;;12.77;;
83465;SDS011;73393;51.946;20.140;2024-03-23T07:14:22;24.73;;;13.93;;
83465;SDS011;73393;51.946;20.140;2024-03-23T07:16:48;25.90;;;15.50;;
83465;SDS011;73393;51.946;20.140;2024-03-23T07:19:14;21.25;;;13.35;;
83465;SDS011;73393;51.946;20.140;2024-03-23T07:21:43;21.80;;;13.32;;
83465;SDS011;73393;51.946;20.140;2024-03-23T07:24:09;21.23;;;12.90;;
83465;SDS011;73393;51.946;20.140;2024-03-23T07:26:35;20.65;;;13.45;;
83465;SDS011;73393;51.946;20.140;2024-03-23T07:29:01;24.60;;;13.95;;
83465;SDS011;73393;51.946;20.140;2024-03-23T07:31:27;19.58;;;13.85;;
83465;SDS011;73393;51.946;20.140;2024-03-23T07:33:52;21.60;;;13.43;;
83465;SDS011;73393;51.946;20.140;2024-03-23T07:36:18;25.60;;;13.18;;
83465;SDS011;73393;51.946;20.140;2024-03-23T07:38:44;20.17;;;12.77;;
83465;SDS011;73393;51.946;20.140;2024-03-23T07:41:19;20.05;;;13.00;;
83465;SDS011;73393;51.946;20.140;2024-03-23T07:43:46;22.77;;;13.40;;
83465;SDS011;73393;51.946;20.140;2024-03-23T07:46:12;19.42;;;12.23;;
83465;SDS011;73393;51.946;20.140;2024-03-23T07:48:38;22.80;;;11.93;;
83465;SDS011;73393;51.946;20.140;2024-03-23T07:51:08;18.60;;;11.82;;
83465;SDS011;73393;51.946;20.140;2024-03-23T07:53:34;22.27;;;13.07;;
83465;SDS011;73393;51.946;20.140;2024-03-23T07:58:27;22.58;;;12.27;;
83465;SDS011;73393;51.946;20.140;2024-03-23T08:00:53;19.02;;;11.40;;
83465;SDS011;73393;51.946;20.140;2024-03-23T08:03:19;19.60;;;11.32;;
83465;SDS011;73393;51.946;20.140;2024-03-23T08:05:45;17.30;;;10.55;;
83465;SDS011;73393;51.946;20.140;2024-03-23T08:08:11;18.85;;;11.85;;
83465;SDS011;73393;51.946;20.140;2024-03-23T08:10:48;20.80;;;12.38;;
83465;SDS011;73393;51.946;20.140;2024-03-23T08:13:13;20.63;;;12.52;;
83465;SDS011;73393;51.946;20.140;2024-03-23T08:15:39;17.35;;;10.38;;
83465;SDS011;73393;51.946;20.140;2024-03-23T08:18:04;14.35;;;9.48;;
83465;SDS011;73393;51.946;20.140;2024-03-23T08:20:30;17.73;;;10.77;;
83465;SDS011;73393;51.946;20.140;2024-03-23T08:22:56;15.40;;;9.93;;
83465;SDS011;73393;51.946;20.140;2024-03-23T08:25:21;15.68;;;10.68;;
83465;SDS011;73393;51.946;20.140;2024-03-23T08:27:47;16.38;;;10.65;;
83465;SDS011;73393;51.946;20.140;2024-03-23T08:30:12;13.80;;;9.02;;
83465;SDS011;73393;51.946;20.140;2024-03-23T08:32:38;14.30;;;8.98;;
83465;SDS011;73393;51.946;20.140;2024-03-23T08:35:04;13.30;;;8.80;;
83465;SDS011;73393;51.946;20.140;2024-03-23T08:37:30;15.68;;;9.77;;
83465;SDS011;73393;51.946;20.140;2024-03-23T08:39:56;18.10;;;10.13;;
83465;SDS011;73393;51.946;20.140;2024-03-23T08:42:23;13.43;;;8.98;;
83465;SDS011;73393;51.946;20.140;2024-03-23T08:44:48;16.58;;;9.73;;
83465;SDS011;73393;51.946;20.140;2024-03-23T08:47:15;15.82;;;10.15;;
83465;SDS011;73393;51.946;20.140;2024-03-23T08:49:41;15.48;;;8.88;;
83465;SDS011;73393;51.946;20.140;2024-03-23T08:52:07;11.98;;;8.25;;
83465;SDS011;73393;51.946;20.140;2024-03-23T08:54:33;14.43;;;8.15;;
83465;SDS011;73393;51.946;20.140;2024-03-23T08:56:59;13.65;;;9.77;;
83465;SDS011;73393;51.946;20.140;2024-03-23T08:59:25;12.60;;;8.93;;
83465;SDS011;73393;51.946;20.140;2024-03-23T09:01:52;15.93;;;9.30;;
83465;SDS011;73393;51.946;20.140;2024-03-23T09:04:18;12.93;;;8.57;;
83465;SDS011;73393;51.946;20.140;2024-03-23T09:06:43;14.23;;;8.77;;
83465;SDS011;73393;51.946;20.140;2024-03-23T09:09:09;12.57;;;7.55;;
83465;SDS011;73393;51.946;20.140;2024-03-23T09:11:38;14.50;;;8.13;;
83465;SDS011;73393;51.946;20.140;2024-03-23T09:14:04;13.50;;;9.45;;
83465;SDS011;73393;51.946;20.140;2024-03-23T09:16:29;16.13;;;9.90;;
83465;SDS011;73393;51.946;20.140;2024-03-23T09:18:55;14.60;;;9.43;;
83465;SDS011;73393;51.946;20.140;2024-03-23T09:21:21;14.20;;;8.27;;
83465;SDS011;73393;51.946;20.140;2024-03-23T09:23:46;13.80;;;8.60;;
83465;SDS011;73393;51.946;20.140;2024-03-23T09:26:12;14.23;;;9.80;;
83465;SDS011;73393;51.946;20.140;2024-03-23T09:28:38;14.13;;;8.15;;
83465;SDS011;73393;51.946;20.140;2024-03-23T09:31:04;13.65;;;9.13;;
83465;SDS011;73393;51.946;20.140;2024-03-23T09:33:31;15.23;;;9.35;;
83465;SDS011;73393;51.946;20.140;2024-03-23T09:35:56;13.80;;;9.90;;
83465;SDS011;73393;51.946;20.140;2024-03-23T09:38:22;13.43;;;9.35;;
83465;SDS011;73393;51.946;20.140;2024-03-23T09:40:49;16.42;;;9.57;;
83465;SDS011;73393;51.946;20.140;2024-03-23T09:43:19;15.40;;;9.68;;
83465;SDS011;73393;51.946;20.140;2024-03-23T09:45:45;14.07;;;8.63;;
83465;SDS011;73393;51.946;20.140;2024-03-23T09:48:11;14.10;;;9.68;;
83465;SDS011;73393;51.946;20.140;2024-03-23T09:50:42;13.82;;;9.70;;
83465;SDS011;73393;51.946;20.140;2024-03-23T09:53:10;14.80;;;9.98;;
83465;SDS011;73393;51.946;20.140;2024-03-23T09:55:37;14.85;;;9.27;;
83465;SDS011;73393;51.946;20.140;2024-03-23T09:58:03;12.50;;;7.88;;
83465;SDS011;73393;51.946;20.140;2024-03-23T10:00:33;13.10;;;8.25;;
83465;SDS011;73393;51.946;20.140;2024-03-23T10:02:59;13.18;;;8.35;;
83465;SDS011;73393;51.946;20.140;2024-03-23T10:05:29;12.82;;;8.27;;
83465;SDS011;73393;51.946;20.140;2024-03-23T10:07:57;13.82;;;8.00;;
83465;SDS011;73393;51.946;20.140;2024-03-23T10:10:24;11.20;;;7.80;;
83465;SDS011;73393;51.946;20.140;2024-03-23T10:12:50;11.88;;;8.02;;
83465;SDS011;73393;51.946;20.140;2024-03-23T10:15:23;12.63;;;8.93;;
83465;SDS011;73393;51.946;20.140;2024-03-23T10:17:49;13.30;;;8.95;;
83465;SDS011;73393;51.946;20.140;2024-03-23T10:20:19;15.90;;;10.00;;
83465;SDS011;73393;51.946;20.140;2024-03-23T10:22:49;15.18;;;9.27;;
83465;SDS011;73393;51.946;20.140;2024-03-23T10:25:16;14.80;;;9.18;;
83465;SDS011;73393;51.946;20.140;2024-03-23T10:27:42;16.02;;;10.05;;
83465;SDS011;73393;51.946;20.140;2024-03-23T10:32:38;13.98;;;9.57;;
83465;SDS011;73393;51.946;20.140;2024-03-23T10:35:20;15.90;;;9.70;;
83465;SDS011;73393;51.946;20.140;2024-03-23T10:37:48;14.15;;;9.85;;
83465;SDS011;73393;51.946;20.140;2024-03-23T10:40:17;14.07;;;9.43;;
83465;SDS011;73393;51.946;20.140;2024-03-23T10:42:43;13.30;;;9.43;;
83465;SDS011;73393;51.946;20.140;2024-03-23T10:45:10;15.75;;;9.48;;
83465;SDS011;73393;51.946;20.140;2024-03-23T10:47:36;14.82;;;9.82;;
83465;SDS011;73393;51.946;20.140;2024-03-23T10:50:03;14.00;;;9.13;;
83465;SDS011;73393;51.946;20.140;2024-03-23T10:52:31;15.77;;;11.07;;
83465;SDS011;73393;51.946;20.140;2024-03-23T10:55:01;16.23;;;9.77;;
83465;SDS011;73393;51.946;20.140;2024-03-23T10:57:31;14.77;;;9.10;;
83465;SDS011;73393;51.946;20.140;2024-03-23T11:00:03;16.70;;;9.38;;
83465;SDS011;73393;51.946;20.140;2024-03-23T11:02:29;13.30;;;9.18;;
83465;SDS011;73393;51.946;20.140;2024-03-23T11:04:55;13.68;;;10.15;;
83465;SDS011;73393;51.946;20.140;2024-03-23T11:09:49;13.30;;;9.80;;
83465;SDS011;73393;51.946;20.140;2024-03-23T11:14:48;16.05;;;9.10;;
83465;SDS011;73393;51.946;20.140;2024-03-23T11:17:19;13.40;;;8.98;;
83465;SDS011;73393;51.946;20.140;2024-03-23T11:20:02;14.82;;;8.15;;
83465;SDS011;73393;51.946;20.140;2024-03-23T11:27:48;10.30;;;7.85;;
83465;SDS011;73393;51.946;20.140;2024-03-23T11:30:15;11.95;;;7.93;;
83465;SDS011;73393;51.946;20.140;2024-03-23T11:32:46;11.38;;;7.97;;
83465;SDS011;73393;51.946;20.140;2024-03-23T11:35:28;11.60;;;8.02;;
83465;SDS011;73393;51.946;20.140;2024-03-23T11:40:31;10.63;;;7.20;;
83465;SDS011;73393;51.946;20.140;2024-03-23T11:42:59;12.75;;;8.50;;
83465;SDS011;73393;51.946;20.140;2024-03-23T11:45:26;11.05;;;7.55;;
83465;SDS011;73393;51.946;20.140;2024-03-23T11:48:05;8.48;;;6.30;;
83465;SDS011;73393;51.946;20.140;2024-03-23T11:50:31;11.63;;;7.47;;
83465;SDS011;73393;51.946;20.140;2024-03-23T11:53:07;9.18;;;6.20;;
83465;SDS011;73393;51.946;20.140;2024-03-23T11:58:15;13.90;;;8.07;;
83465;SDS011;73393;51.946;20.140;2024-03-23T12:00:42;13.02;;;8.30;;
83465;SDS011;73393;51.946;20.140;2024-03-23T12:03:15;12.23;;;8.30;;
83465;SDS011;73393;51.946;20.140;2024-03-23T12:05:41;11.75;;;8.57;;
83465;SDS011;73393;51.946;20.140;2024-03-23T12:08:15;9.65;;;6.68;;
83465;SDS011;73393;51.946;20.140;2024-03-23T12:10:46;11.57;;;6.80;;
83465;SDS011;73393;51.946;20.140;2024-03-23T12:13:17;10.52;;;7.65;;
83465;SDS011;73393;51.946;20.140;2024-03-23T12:15:44;10.20;;;6.63;;
83465;SDS011;73393;51.946;20.140;2024-03-23T12:18:10;10.70;;;7.78;;
83465;SDS011;73393;51.946;20.140;2024-03-23T12:20:36;11.13;;;7.93;;
83465;SDS011;73393;51.946;20.140;2024-03-23T12:23:06;15.85;;;10.38;;
83465;SDS011;73393;51.946;20.140;2024-03-23T12:25:33;15.35;;;9.27;;
83465;SDS011;73393;51.946;20.140;2024-03-23T12:27:59;15.07;;;9.93;;
83465;SDS011;73393;51.946;20.140;2024-03-23T12:30:25;13.95;;;10.02;;
83465;SDS011;73393;51.946;20.140;2024-03-23T12:32:51;13.05;;;10.50;;
83465;SDS011;73393;51.946;20.140;2024-03-23T12:35:16;13.05;;;8.95;;
83465;SDS011;73393;51.946;20.140;2024-03-23T12:37:43;13.77;;;8.52;;
83465;SDS011;73393;51.946;20.140;2024-03-23T12:40:08;11.63;;;7.47;;
83465;SDS011;73393;51.946;20.140;2024-03-23T12:42:34;10.07;;;7.45;;
83465;SDS011;73393;51.946;20.140;2024-03-23T12:45:00;10.88;;;7.95;;
83465;SDS011;73393;51.946;20.140;2024-03-23T12:47:26;12.35;;;7.90;;
83465;SDS011;73393;51.946;20.140;2024-03-23T12:49:52;13.50;;;8.52;;
83465;SDS011;73393;51.946;20.140;2024-03-23T12:52:17;14.25;;;8.80;;
83465;SDS011;73393;51.946;20.140;2024-03-23T12:54:45;13.32;;;9.25;;
83465;SDS011;73393;51.946;20.140;2024-03-23T12:57:10;16.67;;;11.35;;
83465;SDS011;73393;51.946;20.140;2024-03-23T12:59:36;14.93;;;8.73;;
83465;SDS011;73393;51.946;20.140;2024-03-23T13:02:03;15.77;;;10.20;;
83465;SDS011;73393;51.946;20.140;2024-03-23T13:04:28;12.63;;;9.07;;
83465;SDS011;73393;51.946;20.140;2024-03-23T13:06:54;13.35;;;8.52;;
83465;SDS011;73393;51.946;20.140;2024-03-23T13:09:19;13.27;;;9.25;;
83465;SDS011;73393;51.946;20.140;2024-03-23T13:11:45;14.13;;;9.55;;
83465;SDS011;73393;51.946;20.140;2024-03-23T13:14:10;15.32;;;8.38;;
83465;SDS011;73393;51.946;20.140;2024-03-23T13:16:36;15.23;;;10.45;;
83465;SDS011;73393;51.946;20.140;2024-03-23T13:19:02;15.52;;;10.63;;
83465;SDS011;73393;51.946;20.140;2024-03-23T13:21:28;16.70;;;9.38;;
83465;SDS011;73393;51.946;20.140;2024-03-23T13:23:53;13.35;;;9.82;;
83465;SDS011;73393;51.946;20.140;2024-03-23T13:26:20;11.95;;;8.30;;
83465;SDS011;73393;51.946;20.140;2024-03-23T13:28:45;14.75;;;9.75;;
83465;SDS011;73393;51.946;20.140;2024-03-23T13:31:11;15.05;;;9.50;;
83465;SDS011;73393;51.946;20.140;2024-03-23T13:33:36;19.73;;;10.90;;
83465;SDS011;73393;51.946;20.140;2024-03-23T13:36:02;16.13;;;10.70;;
83465;SDS011;73393;51.946;20.140;2024-03-23T13:38:28;16.92;;;10.27;;
83465;SDS011;73393;51.946;20.140;2024-03-23T13:43:21;15.82;;;9.25;;
83465;SDS011;73393;51.946;20.140;2024-03-23T13:45:48;10.68;;;8.43;;
83465;SDS011;73393;51.946;20.140;2024-03-23T13:48:34;13.20;;;8.45;;
83465;SDS011;73393;51.946;20.140;2024-03-23T13:51:00;12.98;;;8.25;;
83465;SDS011;73393;51.946;20.140;2024-03-23T13:53:27;13.20;;;7.65;;
83465;SDS011;73393;51.946;20.140;2024-03-23T13:55:53;13.75;;;9.15;;
83465;SDS011;73393;51.946;20.140;2024-03-23T13:58:19;14.25;;;8.02;;
83465;SDS011;73393;51.946;20.140;2024-03-23T14:00:45;12.65;;;9.68;;
83465;SDS011;73393;51.946;20.140;2024-03-23T14:03:11;14.02;;;10.23;;
83465;SDS011;73393;51.946;20.140;2024-03-23T14:05:38;16.35;;;12.57;;
83465;SDS011;73393;51.946;20.140;2024-03-23T14:08:07;20.73;;;15.27;;
83465;SDS011;73393;51.946;20.140;2024-03-23T14:10:34;28.17;;;21.42;;
83465;SDS011;73393;51.946;20.140;2024-03-23T14:13:00;36.50;;;25.52;;
83465;SDS011;73393;51.946;20.140;2024-03-23T14:15:27;53.60;;;31.38;;
83465;SDS011;73393;51.946;20.140;2024-03-23T14:17:52;55.70;;;30.48;;
83465;SDS011;73393;51.946;20.140;2024-03-23T14:20:19;34.58;;;20.23;;
83465;SDS011;73393;51.946;20.140;2024-03-23T14:22:46;19.77;;;11.38;;
83465;SDS011;73393;51.946;20.140;2024-03-23T14:25:11;13.20;;;7.53;;
83465;SDS011;73393;51.946;20.140;2024-03-23T14:27:37;17.17;;;10.23;;
83465;SDS011;73393;51.946;20.140;2024-03-23T14:30:03;14.98;;;9.02;;
83465;SDS011;73393;51.946;20.140;2024-03-23T14:32:32;11.15;;;7.20;;
83465;SDS011;73393;51.946;20.140;2024-03-23T14:35:05;15.05;;;9.50;;
83465;SDS011;73393;51.946;20.140;2024-03-23T14:37:38;15.25;;;11.00;;
83465;SDS011;73393;51.946;20.140;2024-03-23T14:40:05;20.25;;;13.80;;
83465;SDS011;73393;51.946;20.140;2024-03-23T14:42:31;19.50;;;11.85;;
83465;SDS011;73393;51.946;20.140;2024-03-23T14:44:57;22.63;;;15.63;;
83465;SDS011;73393;51.946;20.140;2024-03-23T14:47:23;21.38;;;14.25;;
83465;SDS011;73393;51.946;20.140;2024-03-23T14:49:49;22.33;;;15.25;;
83465;SDS011;73393;51.946;20.140;2024-03-23T14:52:18;27.67;;;17.23;;
83465;SDS011;73393;51.946;20.140;2024-03-23T14:54:44;21.05;;;14.38;;
83465;SDS011;73393;51.946;20.140;2024-03-23T14:57:10;32.78;;;20.95;;
83465;SDS011;73393;51.946;20.140;2024-03-23T14:59:36;25.90;;;17.30;;
83465;SDS011;73393;51.946;20.140;2024-03-23T15:02:08;30.95;;;20.23;;
83465;SDS011;73393;51.946;20.140;2024-03-23T15:04:34;34.00;;;24.38;;
83465;SDS011;73393;51.946;20.140;2024-03-23T15:07:00;24.45;;;17.33;;
83465;SDS011;73393;51.946;20.140;2024-03-23T15:09:31;29.60;;;20.48;;
83465;SDS011;73393;51.946;20.140;2024-03-23T15:11:57;42.60;;;24.35;;
83465;SDS011;73393;51.946;20.140;2024-03-23T15:14:23;43.95;;;24.52;;
83465;SDS011;73393;51.946;20.140;2024-03-23T15:16:49;36.20;;;21.58;;
83465;SDS011;73393;51.946;20.140;2024-03-23T15:19:15;48.63;;;29.42;;
83465;SDS011;73393;51.946;20.140;2024-03-23T15:21:42;32.80;;;18.90;;
83465;SDS011;73393;51.946;20.140;2024-03-23T15:24:08;24.13;;;16.05;;
83465;SDS011;73393;51.946;20.140;2024-03-23T15:26:36;22.95;;;13.65;;